Time;durP1;ratioP1;P1;durP2;ratioP2;P2;SDS_P1;SDS_P2;PMS_P1;PMS_P2;Temp;Humidity;BMP_temperature;BMP_pressure;BME280_temperature;BME280_humidity;BME280_pressure;Samples;Min_cycle;Max_cycle;Signal;HPM_P1;HPM_P2
2023/08/14 00:00:12;;;;;;;3.75;3.45;;;;;;;19.86;74.21;99673.53;5093151;28;20112;-65
2023/08/14 00:02:38;;;;;;;3.72;3.35;;;;;;;19.90;74.09;99681.13;5094060;28;20101;-66
2023/08/14 00:05:03;;;;;;;6.78;3.42;;;;;;;19.90;74.42;99681.13;5093869;28;20056;-65
2023/08/14 00:07:29;;;;;;;3.85;3.42;;;;;;;19.90;74.15;99678.44;5093789;28;20063;-66
2023/08/14 00:09:55;;;;;;;3.58;3.25;;;;;;;19.89;74.69;99674.03;5093131;28;20457;-65
2023/08/14 00:12:21;;;;;;;3.33;3.03;;;;;;;19.85;74.52;99667.28;5093537;28;20111;-66
2023/08/14 00:14:47;;;;;;;5.55;3.35;;;;;;;19.85;74.51;99680.00;5093407;28;20032;-67
2023/08/14 00:17:12;;;;;;;5.65;3.00;;;;;;;19.85;74.27;99663.72;5093966;28;20036;-67
2023/08/14 00:19:38;;;;;;;3.30;2.97;;;;;;;19.85;74.38;99666.44;5093370;28;20039;-67
2023/08/14 00:22:04;;;;;;;4.53;3.17;;;;;;;19.84;74.28;99665.59;5093230;28;20111;-66
2023/08/14 00:24:29;;;;;;;4.40;2.78;;;;;;;19.82;74.10;99661.38;5093536;28;20055;-67
2023/08/14 00:26:55;;;;;;;3.00;2.67;;;;;;;19.80;74.44;99664.31;5093526;28;20032;-67
2023/08/14 00:29:20;;;;;;;4.57;2.80;;;;;;;19.80;74.46;99672.44;5093197;28;20111;-67
2023/08/14 00:31:46;;;;;;;4.32;3.05;;;;;;;19.75;74.78;99658.56;5093399;28;20065;-66
2023/08/14 00:34:11;;;;;;;2.92;2.63;;;;;;;19.80;74.59;99664.31;5092213;28;20432;-67
2023/08/14 00:36:36;;;;;;;3.50;2.75;;;;;;;19.78;74.68;99655.50;5093166;28;20521;-66
2023/08/14 00:39:03;;;;;;;2.65;2.45;;;;;;;19.78;74.67;99660.94;5093268;28;20370;-66
2023/08/14 00:41:28;;;;;;;2.70;2.50;;;;;;;19.77;74.85;99656.50;5092984;28;20343;-67
2023/08/14 00:43:54;;;;;;;3.08;2.75;;;;;;;19.61;75.13;99630.38;5093152;28;20114;-66
2023/08/14 00:46:19;;;;;;;4.03;2.63;;;;;;;19.76;74.90;99660.25;5093005;28;20107;-64
2023/08/14 00:48:45;;;;;;;2.75;2.53;;;;;;;19.78;74.80;99660.94;5092988;28;20513;-66
2023/08/14 00:51:11;;;;;;;3.65;2.95;;;;;;;19.76;74.84;99657.53;5092933;28;20035;-67
2023/08/14 00:53:36;;;;;;;2.78;2.45;;;;;;;19.76;74.80;99655.69;5093388;28;20027;-64
2023/08/14 00:56:02;;;;;;;3.05;2.72;;;;;;;19.73;75.02;99647.03;5092770;28;20478;-67
2023/08/14 00:58:29;;;;;;;5.78;2.80;;;;;;;19.77;74.96;99638.34;5092598;28;20425;-67
2023/08/14 01:00:56;;;;;;;2.85;2.28;;;;;;;19.58;75.28;99606.31;5092324;28;20438;-64
2023/08/14 01:03:24;;;;;;;3.55;2.40;;;;;;;19.81;74.97;99638.81;5092214;28;20028;-67
2023/08/14 01:05:49;;;;;;;5.25;2.70;;;;;;;19.63;75.11;99593.88;5092877;28;20040;-66
2023/08/14 01:08:15;;;;;;;3.00;2.60;;;;;;;19.82;74.70;99621.50;5092650;28;20024;-67
2023/08/14 01:10:50;;;;;;;2.50;2.30;;;;;;;19.88;74.78;99628.00;5092616;28;20048;-67
2023/08/14 01:13:32;;;;;;;3.33;2.40;;;;;;;19.90;74.60;99629.53;5092926;28;20059;-66
2023/08/14 01:16:00;;;;;;;3.90;2.38;;;;;;;19.87;74.65;99631.75;5092738;28;20067;-66
2023/08/14 01:18:28;;;;;;;2.22;2.03;;;;;;;19.65;74.59;99594.53;5091767;28;20173;-65
2023/08/14 01:21:16;;;;;;;4.63;2.67;;;;;;;19.98;74.45;99619.59;5092619;28;20036;-64
2023/08/14 01:23:42;;;;;;;5.18;2.30;;;;;;;19.88;74.61;99604.41;5053246;28;20044;-66
2023/08/14 01:26:08;;;;;;;2.72;2.53;;;;;;;19.89;74.48;99616.13;5092600;28;20354;-66
2023/08/14 01:28:34;;;;;;;2.85;2.20;;;;;;;19.84;74.61;99618.56;5092917;28;20024;-66
2023/08/14 01:30:59;;;;;;;2.40;2.20;;;;;;;19.86;74.63;99621.94;5092229;28;20035;-67
2023/08/14 01:33:24;;;;;;;3.97;2.22;;;;;;;19.86;74.60;99632.78;5092672;28;20066;-66
2023/08/14 01:36:15;;;;;;;2.20;2.05;;;;;;;19.98;74.76;99641.34;5092384;28;20043;-66
2023/08/14 01:38:58;;;;;;;3.60;2.20;;;;;;;19.98;74.71;99647.63;5091913;28;20369;-66
2023/08/14 01:42:02;;;;;;;3.15;2.03;;;;;;;19.98;74.96;99641.34;5091923;28;20028;-67
2023/08/14 01:44:31;;;;;;;3.10;1.70;;;;;;;19.87;74.78;99648.91;5076023;28;20081;-66
2023/08/14 01:46:58;;;;;;;2.50;1.88;;;;;;;19.77;74.76;99637.47;5092177;28;20856;-67
2023/08/14 01:49:28;;;;;;;2.08;1.90;;;;;;;19.83;75.06;99647.63;5092304;28;20043;-66
2023/08/14 01:51:54;;;;;;;2.13;2.03;;;;;;;19.84;74.50;99649.31;5092544;28;20038;-67
2023/08/14 01:54:20;;;;;;;2.95;2.03;;;;;;;19.78;73.84;99640.03;5092369;28;20495;-67
2023/08/14 01:56:45;;;;;;;3.70;1.77;;;;;;;19.78;73.58;99645.47;5091982;28;20032;-64
2023/08/14 01:59:11;;;;;;;2.78;1.80;;;;;;;19.65;73.94;99618.97;5091769;28;20459;-67
2023/08/14 02:01:36;;;;;;;2.00;1.83;;;;;;;19.85;74.09;99644.69;5092365;28;20111;-66
2023/08/14 02:04:02;;;;;;;5.13;2.08;;;;;;;19.88;73.63;99652.47;5092330;28;20066;-63
2023/08/14 02:06:28;;;;;;;1.98;1.80;;;;;;;19.87;73.36;99648.91;5092254;28;20356;-66
2023/08/14 02:08:53;;;;;;;2.00;1.80;;;;;;;19.90;73.75;99647.72;5091993;28;20085;-66
2023/08/14 02:11:19;;;;;;;1.90;1.60;;;;;;;19.90;73.51;99648.53;5092819;28;20039;-67
2023/08/14 02:13:44;;;;;;;2.55;1.90;;;;;;;19.91;74.12;99644.00;5092617;28;20111;-67
2023/08/14 02:16:10;;;;;;;2.03;1.80;;;;;;;19.89;74.33;99638.69;5095457;28;20080;-68
2023/08/14 02:18:36;;;;;;;2.50;1.77;;;;;;;19.86;74.93;99641.81;5096154;28;20047;-67
2023/08/14 02:21:01;;;;;;;2.38;1.60;;;;;;;19.84;75.40;99638.44;5095443;28;20366;-67
2023/08/14 02:23:27;;;;;;;1.77;1.67;;;;;;;19.82;75.68;99648.66;5095424;28;20074;-65
2023/08/14 02:25:55;;;;;;;3.28;1.52;;;;;;;19.80;75.75;99656.16;5095422;28;20043;-64
2023/08/14 02:28:21;;;;;;;2.30;1.90;;;;;;;19.44;75.99;99606.16;5095874;28;20024;-66
2023/08/14 02:30:47;;;;;;;1.40;1.30;;;;;;;19.64;76.14;99644.44;5095816;28;20088;-66
2023/08/14 02:33:12;;;;;;;1.80;1.70;;;;;;;19.61;76.79;99661.13;5095421;28;20028;-60
2023/08/14 02:35:38;;;;;;;2.03;1.83;;;;;;;19.57;77.10;99648.94;5095690;28;20427;-65
2023/08/14 02:38:07;;;;;;;2.45;1.70;;;;;;;19.63;76.93;99655.47;5095879;28;20148;-64
2023/08/14 02:40:33;;;;;;;1.75;1.63;;;;;;;19.54;76.94;99646.59;5095058;28;20115;-66
2023/08/14 02:43:01;;;;;;;1.70;1.60;;;;;;;19.57;76.74;99659.81;5095455;28;20418;-67
2023/08/14 02:45:27;;;;;;;1.70;1.60;;;;;;;19.54;76.90;99662.91;5095316;28;20058;-67
2023/08/14 02:47:52;;;;;;;1.73;1.50;;;;;;;19.54;77.16;99654.75;5095530;28;20454;-65
2023/08/14 02:50:21;;;;;;;1.50;1.40;;;;;;;19.52;77.46;99659.50;5094964;28;20024;-66
2023/08/14 02:52:47;;;;;;;5.50;1.88;;;;;;;19.55;77.16;99663.72;5095204;28;20117;-66
2023/08/14 02:55:13;;;;;;;2.25;1.55;;;;;;;19.55;77.50;99659.16;5094971;28;20024;-65
2023/08/14 02:57:38;;;;;;;2.42;1.58;;;;;;;19.58;77.39;99660.63;5095199;28;20028;-66
2023/08/14 03:00:05;;;;;;;1.67;1.55;;;;;;;19.60;77.05;99659.44;5095136;28;20446;-67
2023/08/14 03:02:30;;;;;;;2.00;1.80;;;;;;;19.60;77.07;99654.00;5094888;28;20494;-65
2023/08/14 03:04:56;;;;;;;1.65;1.50;;;;;;;19.68;76.74;99665.78;5094968;28;20031;-67
2023/08/14 03:07:21;;;;;;;4.47;1.73;;;;;;;19.72;76.82;99651.66;5095118;28;20032;-67
2023/08/14 03:09:47;;;;;;;1.63;1.52;;;;;;;19.75;76.55;99661.28;5095025;28;20127;-68
2023/08/14 03:12:13;;;;;;;2.03;1.42;;;;;;;19.75;76.30;99650.41;5094367;28;20042;-66
2023/08/14 03:14:38;;;;;;;2.17;1.45;;;;;;;19.80;76.30;99658.88;5095304;28;20036;-66
2023/08/14 03:17:04;;;;;;;2.42;1.38;;;;;;;19.78;76.35;99655.50;5094792;28;20359;-64
2023/08/14 03:19:29;;;;;;;2.70;2.35;;;;;;;19.78;76.26;99647.34;5094876;28;20032;-66
2023/08/14 03:21:55;;;;;;;1.73;1.60;;;;;;;19.73;76.33;99641.63;5094147;28;20024;-65
2023/08/14 03:24:20;;;;;;;2.03;1.38;;;;;;;19.82;76.29;99659.53;5094573;28;20036;-67
2023/08/14 03:26:46;;;;;;;2.83;1.52;;;;;;;19.83;76.30;99649.47;5094373;28;20061;-65
2023/08/14 03:29:11;;;;;;;2.15;1.80;;;;;;;19.88;76.37;99660.63;5094927;28;20442;-65
2023/08/14 03:31:37;;;;;;;2.75;1.90;;;;;;;19.85;76.09;99642.84;5094218;28;20103;-66
2023/08/14 03:34:03;;;;;;;2.40;2.20;;;;;;;19.91;76.37;99652.97;5094275;28;20024;-65
2023/08/14 03:36:28;;;;;;;2.50;2.30;;;;;;;19.84;75.69;99630.28;5093904;28;20028;-67
2023/08/14 03:38:54;;;;;;;2.38;1.95;;;;;;;19.89;75.75;99644.13;5093956;28;20028;-66
2023/08/14 03:41:19;;;;;;;2.35;2.22;;;;;;;19.91;75.74;99639.38;5094140;28;20028;-65
2023/08/14 03:43:45;;;;;;;2.63;2.28;;;;;;;20.00;75.59;99652.84;5094048;28;20115;-64
2023/08/14 03:46:10;;;;;;;3.55;2.22;;;;;;;20.04;75.48;99652.28;5094543;28;20034;-65
2023/08/14 03:48:36;;;;;;;3.15;2.75;;;;;;;20.10;75.27;99658.84;5093980;28;20481;-67
2023/08/14 03:51:02;;;;;;;2.70;2.50;;;;;;;20.16;74.84;99647.22;5093559;28;20035;-65
2023/08/14 03:53:28;;;;;;;2.70;2.50;;;;;;;20.18;75.22;99644.31;5094008;28;20027;-65
2023/08/14 03:55:53;;;;;;;2.70;2.50;;;;;;;20.20;75.33;99653.94;5093990;28;20477;-66
2023/08/14 03:58:19;;;;;;;2.63;2.42;;;;;;;20.15;75.31;99655.56;5093858;28;20020;-66
2023/08/14 04:00:46;;;;;;;3.50;3.15;;;;;;;20.11;75.70;99655.09;5093596;28;20115;-58
2023/08/14 04:03:13;;;;;;;3.20;2.83;;;;;;;20.08;75.72;99660.91;5094089;28;20104;-67
2023/08/14 04:05:40;;;;;;;4.28;3.30;;;;;;;20.00;75.79;99653.72;5093785;28;20032;-66
2023/08/14 04:08:06;;;;;;;4.32;3.42;;;;;;;20.04;75.55;99665.06;5093785;28;20024;-66
2023/08/14 04:10:32;;;;;;;6.80;3.47;;;;;;;19.95;75.65;99650.72;5093355;28;20052;-66
2023/08/14 04:12:58;;;;;;;4.38;3.78;;;;;;;19.94;76.05;99652.59;5093681;28;20036;-66
2023/08/14 04:15:23;;;;;;;3.83;3.53;;;;;;;19.99;75.67;99670.19;5093298;28;20024;-68
2023/08/14 04:17:49;;;;;;;5.70;3.72;;;;;;;19.97;75.93;99658.66;5093639;28;20123;-66
2023/08/14 04:20:15;;;;;;;4.03;3.63;;;;;;;19.98;75.75;99668.50;5093712;28;20066;-65
2023/08/14 04:22:40;;;;;;;4.07;3.67;;;;;;;19.99;75.81;99656.59;5093604;28;20073;-66
2023/08/14 04:25:06;;;;;;;4.78;3.92;;;;;;;20.00;75.69;99661.88;5093266;28;20031;-67
2023/08/14 04:27:36;;;;;;;4.90;4.30;;;;;;;20.05;75.69;99661.31;5093551;28;20085;-66
2023/08/14 04:30:02;;;;;;;9.13;4.40;;;;;;;20.03;75.37;99652.50;5093229;28;20050;-66
2023/08/14 04:32:29;;;;;;;4.82;4.43;;;;;;;20.03;75.55;99653.31;5093512;28;20031;-67
2023/08/14 04:34:55;;;;;;;6.70;4.53;;;;;;;20.06;75.50;99646.69;5093526;28;20335;-67
2023/08/14 04:37:20;;;;;;;6.40;4.65;;;;;;;20.08;75.75;99658.19;5092402;28;20111;-66
2023/08/14 04:39:46;;;;;;;5.20;4.70;;;;;;;20.06;76.56;99661.09;5093015;28;20450;-67
2023/08/14 04:42:11;;;;;;;6.13;5.05;;;;;;;20.07;76.25;99664.66;5093306;28;20035;-66
2023/08/14 04:44:37;;;;;;;8.43;4.97;;;;;;;20.07;76.49;99651.09;5093269;28;20122;-66
2023/08/14 04:47:02;;;;;;;5.18;4.68;;;;;;;20.12;76.46;99648.63;5093021;28;20035;-66
2023/08/14 04:49:28;;;;;;;5.28;4.32;;;;;;;20.18;75.66;99652.47;5075603;28;20039;-66
2023/08/14 04:51:54;;;;;;;6.80;4.88;;;;;;;20.25;76.08;99649.81;5092748;28;20035;-66
2023/08/14 04:54:19;;;;;;;5.00;4.60;;;;;;;20.23;75.71;99642.69;5092799;28;20036;-67
2023/08/14 04:56:45;;;;;;;5.80;4.95;;;;;;;20.35;75.38;99648.47;5092903;28;20442;-67
2023/08/14 04:59:10;;;;;;;7.82;5.70;;;;;;;20.43;75.04;99652.94;5091745;28;20031;-66
2023/08/14 05:01:36;;;;;;;6.07;5.47;;;;;;;20.48;75.26;99649.66;5074789;28;20362;-68
2023/08/14 05:04:01;;;;;;;7.35;5.28;;;;;;;20.56;74.78;99645.97;5092291;28;20358;-66
2023/08/14 05:06:27;;;;;;;7.47;5.50;;;;;;;20.64;73.95;99649.41;5092312;28;20040;-67
2023/08/14 05:08:52;;;;;;;6.68;5.15;;;;;;;20.70;73.09;99649.66;5091851;28;20351;-66
2023/08/14 05:11:18;;;;;;;6.68;5.65;;;;;;;20.76;73.12;99651.59;5092120;28;20055;-62
2023/08/14 05:13:44;;;;;;;7.15;5.65;;;;;;;20.81;72.76;99653.75;5092424;28;20039;-66
2023/08/14 05:16:10;;;;;;;6.10;5.50;;;;;;;20.81;72.32;99654.59;5092120;28;20369;-63
2023/08/14 05:18:36;;;;;;;6.45;5.70;;;;;;;20.84;72.24;99653.38;5073977;28;20536;-69
2023/08/14 05:21:01;;;;;;;7.13;5.95;;;;;;;20.82;71.85;99658.16;5091459;28;20024;-65
2023/08/14 05:23:27;;;;;;;5.85;5.13;;;;;;;20.70;71.64;99646.94;5092312;28;20038;-67
2023/08/14 05:25:52;;;;;;;6.63;5.65;;;;;;;20.70;72.12;99658.66;5092000;28;20025;-66
2023/08/14 05:28:18;;;;;;;8.68;5.72;;;;;;;20.61;72.97;99662.53;5091968;28;20028;-67
2023/08/14 05:30:45;;;;;;;8.57;4.95;;;;;;;20.60;72.79;99655.41;5075066;28;20035;-66
2023/08/14 05:33:11;;;;;;;6.75;5.30;;;;;;;20.50;73.35;99659.31;5091767;28;20059;-65
2023/08/14 05:35:37;;;;;;;6.78;5.47;;;;;;;20.40;73.68;99658.75;5091978;28;20095;-67
2023/08/14 05:38:02;;;;;;;6.38;5.50;;;;;;;20.34;73.94;99660.38;5091526;28;20111;-65
2023/08/14 05:40:28;;;;;;;5.80;5.13;;;;;;;20.30;73.83;99661.78;5091551;28;20027;-66
2023/08/14 05:43:06;;;;;;;8.38;5.50;;;;;;;20.50;73.80;99678.34;5089223;28;20020;-67
2023/08/14 05:45:34;;;;;;;5.60;5.00;;;;;;;20.47;73.03;99665.09;5091644;28;20032;-67
2023/08/14 05:48:04;;;;;;;8.52;5.22;;;;;;;20.57;73.80;99678.41;5092385;28;20465;-65
2023/08/14 05:50:31;;;;;;;5.53;4.85;;;;;;;20.56;73.01;99681.31;5095460;28;20403;-67
2023/08/14 05:52:59;;;;;;;7.65;4.80;;;;;;;20.53;73.13;99671.66;5095992;28;20058;-66
2023/08/14 05:55:25;;;;;;;7.30;4.75;;;;;;;20.45;73.93;99672.63;5095773;28;20024;-68
2023/08/14 05:57:51;;;;;;;5.30;4.47;;;;;;;20.38;74.15;99666.28;5095663;28;20078;-65
2023/08/14 06:00:18;;;;;;;5.28;4.72;;;;;;;20.47;73.91;99686.88;5095416;28;20458;-65
2023/08/14 06:02:44;;;;;;;5.40;4.90;;;;;;;20.43;73.69;99674.69;5094413;28;20028;-65
2023/08/14 06:05:10;;;;;;;5.35;4.80;;;;;;;20.51;73.74;99677.31;5094782;28;20097;-65
2023/08/14 06:07:36;;;;;;;6.63;5.07;;;;;;;20.54;73.52;99664.34;5095221;28;20477;-66
2023/08/14 06:10:06;;;;;;;8.95;5.43;;;;;;;20.86;73.24;99686.66;5095035;28;20048;-67
2023/08/14 06:12:32;;;;;;;9.52;5.57;;;;;;;21.28;71.24;99686.81;5095956;28;20032;-66
2023/08/14 06:14:58;;;;;;;6.25;5.18;;;;;;;21.72;70.35;99693.03;5095545;28;20032;-64
2023/08/14 06:17:25;;;;;;;6.57;5.22;;;;;;;21.97;68.92;99698.81;5095747;28;20415;-66
2023/08/14 06:19:50;;;;;;;6.22;5.47;;;;;;;22.06;68.25;99696.75;5095756;28;20084;-68
2023/08/14 06:22:17;;;;;;;8.68;5.13;;;;;;;22.11;68.08;99701.59;5095889;28;20028;-63
2023/08/14 06:24:43;;;;;;;6.43;5.55;;;;;;;22.19;67.56;99702.28;5095588;28;20079;-63
2023/08/14 06:27:08;;;;;;;8.60;5.70;;;;;;;22.56;67.00;99703.88;5095668;28;20111;-63
2023/08/14 06:29:34;;;;;;;7.00;5.13;;;;;;;23.74;63.04;99690.69;5095890;28;20028;-61
2023/08/14 06:32:00;;;;;;;5.65;5.05;;;;;;;24.81;58.90;99683.94;5095685;28;20029;-63
2023/08/14 06:34:26;;;;;;;6.25;4.80;;;;;;;24.91;58.25;99692.50;5095325;28;20366;-64
2023/08/14 06:36:52;;;;;;;8.70;5.43;;;;;;;24.91;58.67;99688.94;5095618;28;20036;-57
2023/08/14 06:39:18;;;;;;;8.60;4.82;;;;;;;25.01;57.65;99692.00;5095879;28;20039;-63
2023/08/14 06:41:44;;;;;;;10.27;4.75;;;;;;;25.08;56.91;99697.44;5094748;28;20024;-62
2023/08/14 06:44:11;;;;;;;6.55;4.72;;;;;;;25.15;57.80;99703.69;5094860;28;20079;-63
2023/08/14 06:46:37;;;;;;;5.38;4.90;;;;;;;25.58;56.25;99707.56;5094169;28;20032;-63
2023/08/14 06:49:03;;;;;;;6.07;5.00;;;;;;;26.18;54.68;99711.56;5095542;28;20028;-63
2023/08/14 06:51:29;;;;;;;6.60;4.90;;;;;;;26.58;53.53;99706.63;5095294;28;20047;-63
2023/08/14 06:53:54;;;;;;;8.48;5.50;;;;;;;26.70;52.99;99715.72;5095133;28;20036;-62
2023/08/14 06:56:20;;;;;;;7.75;5.03;;;;;;;26.64;53.05;99713.94;5095127;28;20024;-64
2023/08/14 06:58:45;;;;;;;6.40;5.18;;;;;;;26.32;53.63;99711.41;5095332;28;20146;-62
2023/08/14 07:01:11;;;;;;;7.05;5.13;;;;;;;25.86;54.93;99708.97;5094209;28;20073;-61
2023/08/14 07:03:36;;;;;;;5.15;4.65;;;;;;;25.21;56.74;99718.41;5095202;28;20104;-63
2023/08/14 07:06:02;;;;;;;7.18;4.60;;;;;;;24.68;57.92;99723.16;5095077;28;20024;-63
2023/08/14 07:08:28;;;;;;;5.78;4.72;;;;;;;24.26;59.75;99733.69;5094602;28;20031;-62
2023/08/14 07:10:54;;;;;;;8.27;4.50;;;;;;;23.90;60.72;99731.25;5095181;28;20124;-55
2023/08/14 07:13:21;;;;;;;6.30;4.80;;;;;;;23.57;61.60;99740.31;5094590;28;20029;-63
2023/08/14 07:15:47;;;;;;;5.80;5.20;;;;;;;23.17;62.06;99721.22;5094692;28;20260;-63
2023/08/14 07:18:15;;;;;;;8.15;4.82;;;;;;;23.09;62.67;99736.72;5094937;28;20020;-63
2023/08/14 07:20:41;;;;;;;5.60;4.93;;;;;;;23.00;63.88;99739.84;5094579;28;20028;-64
2023/08/14 07:23:06;;;;;;;6.18;5.18;;;;;;;22.99;63.39;99739.03;5094539;28;20132;-63
2023/08/14 07:25:32;;;;;;;10.32;5.38;;;;;;;23.02;63.64;99740.50;5094621;28;20449;-64
2023/08/14 07:27:58;;;;;;;11.15;5.45;;;;;;;22.83;63.67;99723.03;5094004;28;20032;-62
2023/08/14 07:30:23;;;;;;;9.85;5.82;;;;;;;23.06;63.53;99748.06;5094705;28;20382;-63
2023/08/14 07:32:49;;;;;;;9.80;5.47;;;;;;;23.18;63.11;99756.47;5093693;28;20032;-62
2023/08/14 07:35:14;;;;;;;6.65;5.20;;;;;;;23.29;62.48;99746.03;5094169;28;20164;-63
2023/08/14 07:37:40;;;;;;;8.43;5.25;;;;;;;23.51;62.15;99761.16;5094065;28;20124;-63
2023/08/14 07:40:09;;;;;;;5.53;5.03;;;;;;;23.57;62.04;99764.09;5094269;28;20032;-64
2023/08/14 07:42:34;;;;;;;7.80;5.00;;;;;;;23.62;61.37;99767.03;5091587;28;20106;-64
2023/08/14 07:45:00;;;;;;;8.70;5.00;;;;;;;23.74;61.05;99737.16;5094224;28;20436;-64
2023/08/14 07:47:26;;;;;;;7.03;5.07;;;;;;;24.20;60.48;99765.47;5094119;28;20474;-59
2023/08/14 07:49:51;;;;;;;7.07;4.95;;;;;;;24.49;59.19;99764.09;5093569;28;20119;-64
2023/08/14 07:52:17;;;;;;;5.47;4.93;;;;;;;24.72;58.38;99770.94;5087420;28;20042;-64
2023/08/14 07:54:42;;;;;;;5.57;4.82;;;;;;;24.83;57.86;99771.31;5089231;28;20038;-63
2023/08/14 07:57:08;;;;;;;6.60;4.97;;;;;;;24.83;57.58;99782.28;5092790;28;20390;-63
2023/08/14 07:59:33;;;;;;;7.22;4.78;;;;;;;24.72;57.34;99786.53;5093453;28;20039;-63
2023/08/14 08:01:59;;;;;;;7.15;5.43;;;;;;;24.46;58.55;99789.16;5093465;28;20107;-66
2023/08/14 08:04:24;;;;;;;6.32;4.93;;;;;;;24.24;59.02;99794.09;5090971;28;20020;-63
2023/08/14 08:06:49;;;;;;;7.93;4.70;;;;;;;24.19;59.13;99793.88;5089630;28;20431;-62
2023/08/14 08:09:17;;;;;;;5.85;4.97;;;;;;;24.19;59.04;99794.72;5073365;28;20056;-61
2023/08/14 08:11:43;;;;;;;6.50;5.05;;;;;;;24.10;59.20;99804.19;5071970;28;20047;-62
2023/08/14 08:14:09;;;;;;;6.50;5.65;;;;;;;23.97;59.61;99804.22;5082904;28;20115;-64
2023/08/14 08:16:38;;;;;;;6.13;5.22;;;;;;;23.87;60.16;99800.03;5093393;28;20452;-64
2023/08/14 08:19:07;;;;;;;6.28;5.00;;;;;;;23.90;60.02;99810.53;5092750;28;20024;-60
2023/08/14 08:21:33;;;;;;;8.57;5.40;;;;;;;23.73;60.21;99806.53;5092514;28;20110;-63
2023/08/14 08:23:59;;;;;;;8.95;5.45;;;;;;;23.57;60.82;99799.63;5056112;28;20078;-63
2023/08/14 08:26:25;;;;;;;7.18;5.50;;;;;;;23.42;61.18;99797.09;5080432;28;20401;-64
2023/08/14 08:28:50;;;;;;;8.77;5.45;;;;;;;23.31;61.83;99804.03;5092203;28;20039;-65
2023/08/14 08:31:16;;;;;;;8.80;5.30;;;;;;;23.28;62.09;99802.53;5092513;28;20024;-62
2023/08/14 08:33:41;;;;;;;6.15;5.30;;;;;;;23.04;61.77;99772.00;5092852;28;20028;-70
2023/08/14 08:36:07;;;;;;;6.50;5.00;;;;;;;23.24;61.84;99812.16;5087329;28;20054;-69
2023/08/14 08:38:32;;;;;;;5.32;4.82;;;;;;;23.23;61.67;99810.50;5091389;28;20044;-70
2023/08/14 08:41:01;;;;;;;10.98;4.88;;;;;;;23.23;61.86;99818.69;5090373;28;20032;-58
2023/08/14 08:43:27;;;;;;;8.98;5.10;;;;;;;23.16;62.32;99817.84;5092459;28;20535;-68
2023/08/14 08:45:58;;;;;;;7.57;4.93;;;;;;;23.16;62.60;99823.28;5092543;28;20032;-68
2023/08/14 08:48:24;;;;;;;7.80;4.47;;;;;;;23.08;61.92;99827.88;5091864;28;20028;-68
2023/08/14 08:50:50;;;;;;;6.30;4.63;;;;;;;23.06;61.65;99827.25;5091597;28;20059;-66
2023/08/14 08:53:20;;;;;;;7.70;4.72;;;;;;;23.01;62.22;99829.75;5091287;28;20466;-67
2023/08/14 08:55:47;;;;;;;5.07;4.55;;;;;;;22.90;62.34;99835.81;5091453;28;20035;-66
2023/08/14 08:58:15;;;;;;;5.18;4.63;;;;;;;22.92;62.65;99831.84;5091193;28;20398;-66
2023/08/14 09:00:42;;;;;;;5.20;4.32;;;;;;;22.89;62.81;99839.56;5088780;28;20036;-67
2023/08/14 09:03:09;;;;;;;5.95;4.65;;;;;;;22.87;62.85;99825.28;5083126;28;20032;-66
2023/08/14 09:05:35;;;;;;;7.00;4.95;;;;;;;22.89;62.68;99834.97;5084160;28;20068;-67
2023/08/14 09:08:01;;;;;;;9.25;4.60;;;;;;;22.77;63.14;99845.63;5085383;28;20020;-68
2023/08/14 09:10:28;;;;;;;5.60;5.00;;;;;;;22.73;63.24;99848.97;5090955;28;20072;-64
2023/08/14 09:12:55;;;;;;;8.52;4.95;;;;;;;22.76;63.74;99852.16;5083144;28;20032;-65
2023/08/14 09:15:23;;;;;;;6.65;5.20;;;;;;;22.74;63.51;99865.16;5089410;28;20152;-73
2023/08/14 09:17:50;;;;;;;14.05;5.70;;;;;;;22.74;63.59;99854.25;5091847;28;20043;-66
2023/08/14 09:20:16;;;;;;;14.48;6.30;;;;;;;22.94;63.64;99858.94;5091465;28;20046;-67
2023/08/14 09:22:41;;;;;;;5.68;4.90;;;;;;;23.16;62.20;99861.53;5091209;28;20115;-65
2023/08/14 09:25:07;;;;;;;6.97;4.68;;;;;;;23.33;61.68;99865.56;5094360;28;20028;-64
2023/08/14 09:27:34;;;;;;;5.25;4.72;;;;;;;23.41;61.49;99874.63;5096875;28;20097;-64
2023/08/14 09:30:00;;;;;;;5.97;5.10;;;;;;;23.38;61.69;99875.88;5096925;28;20047;-62
2023/08/14 09:32:26;;;;;;;7.13;5.13;;;;;;;23.16;61.77;99842.41;5095201;28;20141;-64
2023/08/14 09:35:02;;;;;;;8.90;5.07;;;;;;;23.40;62.26;99883.88;5090873;28;20543;-63
2023/08/14 09:37:31;;;;;;;8.85;5.03;;;;;;;23.19;62.03;99872.88;5094775;28;20523;-62
2023/08/14 09:40:14;;;;;;;6.32;5.20;;;;;;;23.33;62.25;99883.88;5097612;28;20040;-62
2023/08/14 09:42:43;;;;;;;6.65;4.55;;;;;;;23.08;62.44;99882.50;5093972;28;20027;-61
2023/08/14 09:45:10;;;;;;;8.15;5.07;;;;;;;23.00;62.72;99874.50;5082465;28;20020;-63
2023/08/14 09:47:35;;;;;;;7.60;5.18;;;;;;;22.89;63.38;99883.25;5093180;28;20036;-63
2023/08/14 09:50:02;;;;;;;7.22;5.60;;;;;;;22.89;63.63;99888.72;5087742;28;20336;-64
2023/08/14 09:52:29;;;;;;;6.20;4.93;;;;;;;22.86;63.49;99886.41;5090779;28;20530;-63
2023/08/14 09:54:55;;;;;;;11.43;5.82;;;;;;;22.83;63.79;99884.94;5097827;28;20123;-63
2023/08/14 09:57:22;;;;;;;9.80;5.55;;;;;;;22.82;63.77;99894.16;5097665;28;20035;-62
2023/08/14 09:59:48;;;;;;;8.15;5.75;;;;;;;22.76;64.05;99884.03;5086678;28;20198;-65
2023/08/14 10:02:16;;;;;;;6.75;5.78;;;;;;;22.83;63.71;99895.84;5089347;28;20168;-59
2023/08/14 10:04:45;;;;;;;6.25;4.95;;;;;;;22.83;63.73;99890.41;5095923;28;20030;-61
2023/08/14 10:07:12;;;;;;;5.70;5.10;;;;;;;22.83;62.77;99900.44;5076871;28;20028;-62
2023/08/14 10:09:41;;;;;;;10.93;5.10;;;;;;;22.84;63.26;99900.25;5083404;28;20109;-62
2023/08/14 10:12:13;;;;;;;8.25;5.10;;;;;;;22.86;63.49;99908.22;5090553;28;20037;-62
2023/08/14 10:14:44;;;;;;;6.68;5.20;;;;;;;22.78;63.73;99909.25;5098053;28;20032;-61
2023/08/14 10:17:18;;;;;;;9.05;5.70;;;;;;;22.74;63.80;99907.97;5097401;28;20050;-60
2023/08/14 10:20:03;;;;;;;5.60;5.10;;;;;;;22.89;64.22;99905.94;5097844;28;20023;-59
2023/08/14 10:22:33;;;;;;;5.60;5.00;;;;;;;22.91;63.71;99916.69;5090118;28;20024;-60
2023/08/14 10:25:03;;;;;;;8.38;5.20;;;;;;;23.06;63.42;99922.00;5092299;28;20035;-56
2023/08/14 10:27:31;;;;;;;6.47;5.32;;;;;;;23.17;63.10;99907.72;5096897;28;20039;-58
2023/08/14 10:29:58;;;;;;;5.85;5.10;;;;;;;23.15;62.41;99890.72;5095706;28;20035;-61
2023/08/14 10:32:24;;;;;;;10.35;4.97;;;;;;;23.48;61.96;99924.66;5097340;28;20165;-60
2023/08/14 10:34:51;;;;;;;10.05;5.50;;;;;;;23.51;61.38;99919.63;5095408;28;20048;-60
2023/08/14 10:37:28;;;;;;;6.25;5.07;;;;;;;23.68;61.38;99915.66;5093299;28;20035;-59
2023/08/14 10:40:13;;;;;;;5.63;5.13;;;;;;;23.74;60.97;99923.03;5091914;28;20032;-61
2023/08/14 10:42:41;;;;;;;6.60;4.80;;;;;;;23.91;60.54;99924.31;5091143;28;20039;-59
2023/08/14 10:45:07;;;;;;;5.93;5.18;;;;;;;24.07;59.55;99927.69;5094257;28;20039;-60
2023/08/14 10:47:33;;;;;;;5.93;5.05;;;;;;;24.25;58.81;99920.75;5094666;28;20061;-58
2023/08/14 10:50:12;;;;;;;6.35;5.50;;;;;;;24.61;58.46;99927.66;5087710;28;20061;-61
2023/08/14 10:52:38;;;;;;;7.03;4.97;;;;;;;24.58;58.46;99933.53;5074990;28;20461;-59
2023/08/14 10:55:03;;;;;;;9.63;4.95;;;;;;;24.59;57.85;99929.72;5093048;28;20108;-61
2023/08/14 10:57:30;;;;;;;6.72;5.80;;;;;;;24.48;57.82;99914.84;5094556;28;20032;-57
2023/08/14 10:59:57;;;;;;;8.90;5.82;;;;;;;24.47;57.98;99937.75;5094101;28;20047;-60
2023/08/14 11:02:26;;;;;;;6.57;5.85;;;;;;;24.41;58.04;99931.25;5094052;28;20043;-61
2023/08/14 11:04:59;;;;;;;10.50;5.97;;;;;;;24.59;57.91;99924.25;5094143;28;20028;-59
2023/08/14 11:07:28;;;;;;;6.75;6.07;;;;;;;24.87;56.86;99929.50;5093243;28;20040;-62
2023/08/14 11:09:59;;;;;;;6.55;5.95;;;;;;;25.27;55.68;99933.94;5093840;28;20197;-62
2023/08/14 11:12:25;;;;;;;8.40;5.93;;;;;;;25.55;54.08;99910.00;5093307;28;20346;-62
2023/08/14 11:14:54;;;;;;;8.48;6.18;;;;;;;25.91;53.39;99920.28;5093767;28;20036;-59
2023/08/14 11:17:22;;;;;;;6.70;6.00;;;;;;;26.13;52.93;99933.63;5093314;28;20094;-59
2023/08/14 11:19:49;;;;;;;11.57;6.85;;;;;;;26.26;52.54;99937.34;5093774;28;20044;-61
2023/08/14 11:22:14;;;;;;;11.57;6.60;;;;;;;26.21;52.62;99930.63;5093368;28;20106;-61
2023/08/14 11:24:41;;;;;;;8.25;6.35;;;;;;;26.11;52.41;99935.75;5090102;28;20173;-61
2023/08/14 11:27:07;;;;;;;8.75;6.68;;;;;;;25.94;52.72;99936.31;5093558;28;20107;-62
2023/08/14 11:29:34;;;;;;;8.07;6.50;;;;;;;25.83;53.16;99942.53;5086173;28;20039;-61
2023/08/14 11:32:00;;;;;;;11.60;6.75;;;;;;;25.75;53.70;99943.63;5089727;28;20062;-61